Time;durP1;ratioP1;P1;durP2;ratioP2;P2;SDS_P1;SDS_P2;PMS_P1;PMS_P2;Temp;Humidity;BMP_temperature;BMP_pressure;BME280_temperature;BME280_humidity;BME280_pressure;Samples;Min_cycle;Max_cycle;Signal;HPM_P1;HPM_P2
2022/05/05 00:00:49;;;;;;;22.98;14.38;;;;;;;9.37;58.89;100443.31;1953782;91;29740;-64
2022/05/05 00:03:51;;;;;;;20.85;13.83;;;;;;;9.31;58.93;100451.62;1954015;91;31453;-64
2022/05/05 00:06:53;;;;;;;23.57;14.75;;;;;;;9.24;59.10;100445.66;1953973;91;34147;-64
2022/05/05 00:09:55;;;;;;;23.12;14.00;;;;;;;9.19;59.38;100444.97;1953749;91;30528;-65
2022/05/05 00:16:17;;;;;;;19.50;13.40;;;;;;;9.10;59.57;100448.04;1954058;91;29134;-63
2022/05/05 00:19:19;;;;;;;22.10;13.50;;;;;;;9.05;59.59;100447.35;1954090;91;32263;-63
2022/05/05 00:22:21;;;;;;;23.67;14.50;;;;;;;9.00;60.09;100442.66;1953611;91;34050;-64
2022/05/05 00:25:23;;;;;;;25.12;14.50;;;;;;;8.94;59.93;100442.44;1953754;91;30524;-62
2022/05/05 00:28:26;;;;;;;21.37;12.88;;;;;;;8.89;60.18;100438.62;1953523;91;27691;-63
2022/05/05 00:31:28;;;;;;;22.10;13.43;;;;;;;8.85;60.24;100447.69;1953447;91;29568;-58
2022/05/05 00:34:30;;;;;;;22.90;14.10;;;;;;;8.81;60.71;100451.41;1953460;91;32466;-63
2022/05/05 00:37:32;;;;;;;19.00;13.38;;;;;;;8.73;60.91;100449.52;1953521;91;33420;-64
2022/05/05 00:40:34;;;;;;;19.98;13.22;;;;;;;8.67;60.86;100449.30;1953713;91;30587;-65
2022/05/05 00:43:36;;;;;;;22.40;14.00;;;;;;;8.62;61.04;100441.45;1953728;91;27648;-64
2022/05/05 00:46:39;;;;;;;19.17;13.40;;;;;;;8.58;61.11;100446.52;1953744;91;28187;-61
2022/05/05 00:49:49;;;;;;;21.52;13.70;;;;;;;8.55;61.40;100445.30;1953224;91;31747;-64
2022/05/05 00:52:51;;;;;;;22.25;14.28;;;;;;;8.51;61.70;100447.23;1951611;91;34239;-59
2022/05/05 00:55:56;;;;;;;23.32;14.20;;;;;;;8.47;61.83;100440.23;1978207;90;30241;-64
2022/05/05 00:58:58;;;;;;;20.23;14.25;;;;;;;8.43;61.97;100443.94;1978822;90;27686;-63
2022/05/05 01:02:02;;;;;;;20.80;14.20;;;;;;;8.40;61.86;100444.53;1978651;90;28882;-60
2022/05/05 01:05:06;;;;;;;26.48;13.90;;;;;;;8.35;62.24;100448.23;1978762;90;31229;-62
2022/05/05 01:08:09;;;;;;;19.95;14.18;;;;;;;8.31;62.38;100450.61;1978665;90;33781;-58
2022/05/05 01:11:11;;;;;;;18.62;13.20;;;;;;;8.24;62.30;100453.13;1978695;90;30151;-63
2022/05/05 01:14:17;;;;;;;21.82;14.28;;;;;;;8.20;62.50;100451.48;1978999;90;27683;-63
2022/05/05 01:17:19;;;;;;;19.75;13.80;;;;;;;8.17;62.77;100452.93;1978415;90;30023;-60
2022/05/05 01:20:22;;;;;;;22.65;14.58;;;;;;;8.15;62.99;100452.11;1978615;90;32257;-64
2022/05/05 01:23:24;;;;;;;22.75;15.00;;;;;;;8.12;63.21;100452.22;1966648;90;33036;-64
2022/05/05 01:29:46;;;;;;;23.02;15.05;;;;;;;8.08;63.52;100451.47;1951779;91;27690;-65
2022/05/05 01:32:48;;;;;;;21.73;14.68;;;;;;;8.08;64.16;100452.80;1951696;91;30029;-63
2022/05/05 01:35:54;;;;;;;23.70;15.23;;;;;;;8.11;64.53;100458.52;1951822;91;31424;-65
2022/05/05 01:38:56;;;;;;;25.15;15.70;;;;;;;8.11;64.70;100458.03;1951820;91;33955;-64
2022/05/05 01:41:58;;;;;;;21.55;15.03;;;;;;;8.12;64.87;100460.22;1951879;91;29379;-64
2022/05/05 01:45:00;;;;;;;21.52;15.53;;;;;;;8.10;64.73;100457.63;1951744;91;27692;-61
2022/05/05 01:48:05;;;;;;;24.57;16.35;;;;;;;8.09;64.65;100459.89;1951666;91;29648;-64
2022/05/05 01:51:07;;;;;;;22.75;16.67;;;;;;;8.08;64.56;100458.63;1952790;91;31330;-64
2022/05/05 01:54:09;;;;;;;24.70;16.62;;;;;;;8.05;64.63;100461.80;1928892;91;33899;-65
2022/05/05 01:57:12;;;;;;;30.00;17.75;;;;;;;8.04;64.81;100464.06;1983072;89;30712;-58
2022/05/05 02:00:16;;;;;;;30.75;17.17;;;;;;;8.02;64.90;100459.25;1983404;89;27760;-66
2022/05/05 02:03:18;;;;;;;24.52;16.77;;;;;;;8.01;64.69;100461.98;1983315;89;28676;-58
2022/05/05 02:06:21;;;;;;;24.72;16.30;;;;;;;7.98;64.61;100466.95;1983320;89;31097;-59
2022/05/05 02:09:23;;;;;;;26.37;17.32;;;;;;;7.95;64.61;100463.53;1983386;89;34105;-62
2022/05/05 02:12:25;;;;;;;25.60;18.23;;;;;;;7.93;64.74;100465.38;1983167;89;29927;-58
2022/05/05 02:15:28;;;;;;;29.77;17.80;;;;;;;7.89;64.98;100467.29;1983112;89;27759;-65
2022/05/05 02:18:31;;;;;;;29.63;18.42;;;;;;;7.86;64.95;100466.91;1983058;89;29620;-61
2022/05/05 02:21:33;;;;;;;29.98;19.57;;;;;;;7.85;65.11;100471.88;1983029;89;31921;-60
2022/05/05 02:24:36;;;;;;;28.52;19.45;;;;;;;7.84;65.34;100472.80;1982871;89;34257;-59
2022/05/05 02:27:52;;;;;;;29.35;19.87;;;;;;;7.83;65.31;100473.72;1983033;89;29543;-60
2022/05/05 02:30:54;;;;;;;;;;;;;;;7.83;65.67;100471.50;1985564;89;27702;-60
2022/05/05 02:33:55;;;;;;;29.98;19.60;;;;;;;7.82;65.75;100470.64;1983463;89;29887;-58
2022/05/05 02:40:18;;;;;;;31.23;20.65;;;;;;;7.82;65.56;100462.64;1983423;89;33964;-59
2022/05/05 02:43:20;;;;;;;35.33;20.95;;;;;;;7.79;65.58;100454.74;1982969;89;30211;-67
2022/05/05 02:46:22;;;;;;;36.08;23.62;;;;;;;7.78;65.64;100461.00;1983211;89;27736;-59
2022/05/05 02:49:27;;;;;;;33.18;21.73;;;;;;;7.75;65.69;100459.77;1983298;89;29668;-66
2022/05/05 02:52:28;;;;;;;38.53;23.47;;;;;;;7.74;66.02;100457.58;1982989;89;31313;-57
2022/05/05 02:55:30;;;;;;;39.90;21.20;;;;;;;7.74;65.77;100461.58;1983207;89;34308;-66
2022/05/05 02:58:32;;;;;;;31.55;20.48;;;;;;;7.72;65.64;100463.42;1983445;89;30475;-66
2022/05/05 03:01:36;;;;;;;28.00;19.42;;;;;;;7.68;65.69;100461.78;1983284;89;27804;-66
2022/05/05 03:04:37;;;;;;;33.90;20.08;;;;;;;7.65;65.74;100457.03;1983550;89;28917;-64
2022/05/05 03:07:41;;;;;;;24.67;18.32;;;;;;;7.63;65.86;100461.54;1983444;89;32217;-63
2022/05/05 03:10:43;;;;;;;30.57;20.55;;;;;;;7.60;65.77;100463.86;1983476;89;32781;-63
2022/05/05 03:13:44;;;;;;;27.93;18.95;;;;;;;7.59;65.96;100468.78;1983495;89;29771;-65
2022/05/05 03:16:46;;;;;;;34.83;21.25;;;;;;;7.56;65.90;100467.08;1983594;89;27646;-65
2022/05/05 03:19:48;;;;;;;29.87;20.95;;;;;;;7.55;66.22;100466.66;1983548;89;28677;-65
2022/05/05 03:22:50;;;;;;;33.00;20.80;;;;;;;7.54;66.22;100465.39;1983099;89;32245;-60
2022/05/05 03:25:53;;;;;;;33.15;20.70;;;;;;;7.53;66.10;100464.50;1982912;89;34186;-62
2022/05/05 03:28:55;;;;;;;32.67;20.50;;;;;;;7.53;66.23;100467.17;1961902;89;29713;-65
2022/05/05 03:31:56;;;;;;;38.17;25.02;;;;;;;7.53;66.20;100471.17;1983343;89;27728;-70
2022/05/05 03:34:59;;;;;;;37.90;25.30;;;;;;;7.56;66.51;100474.22;1982999;89;28754;-67
2022/05/05 03:38:01;;;;;;;39.40;25.40;;;;;;;7.59;66.57;100473.64;1982909;89;31934;-69
2022/05/05 03:41:05;;;;;;;42.35;28.05;;;;;;;7.66;66.58;100472.11;1983527;89;33983;-68
2022/05/05 03:44:09;;;;;;;46.42;29.42;;;;;;;7.76;66.88;100470.84;1983193;89;30011;-67
2022/05/05 03:47:10;;;;;;;48.13;30.25;;;;;;;7.86;66.65;100464.73;1983542;89;27678;-65
2022/05/05 03:50:12;;;;;;;50.95;29.75;;;;;;;7.95;66.62;100470.20;1983507;89;29728;-67
2022/05/05 03:53:14;;;;;;;52.80;28.92;;;;;;;8.03;66.65;100474.77;1983070;89;30509;-68
2022/05/05 03:56:16;;;;;;;49.65;28.47;;;;;;;8.13;66.59;100480.20;1983377;89;33839;-64
2022/05/05 03:59:19;;;;;;;47.23;27.93;;;;;;;8.22;66.91;100477.66;1983481;89;29359;-69
2022/05/05 04:02:21;;;;;;;40.05;26.77;;;;;;;8.31;66.85;100479.12;1983511;89;28200;-69
2022/05/05 04:05:23;;;;;;;44.27;26.10;;;;;;;8.40;66.76;100481.91;1983456;89;28080;-70
2022/05/05 04:08:26;;;;;;;42.85;26.73;;;;;;;8.49;67.01;100489.14;1983459;89;32403;-68
2022/05/05 04:11:28;;;;;;;38.92;24.72;;;;;;;8.59;66.86;100492.33;1983374;89;33038;-69
2022/05/05 04:14:30;;;;;;;45.88;25.27;;;;;;;8.69;67.02;100495.48;1983030;89;30550;-70
2022/05/05 04:17:32;;;;;;;33.08;21.30;;;;;;;8.80;66.60;100503.09;1982971;89;28030;-70
2022/05/05 04:20:34;;;;;;;29.12;20.17;;;;;;;8.91;66.69;100500.00;1983195;89;28742;-69
2022/05/05 04:23:37;;;;;;;32.88;21.50;;;;;;;9.01;66.70;100505.41;1982912;89;32334;-67
2022/05/05 04:26:42;;;;;;;26.55;20.12;;;;;;;9.11;66.56;100509.44;1982929;89;33191;-68
2022/05/05 04:29:44;;;;;;;31.23;20.35;;;;;;;9.21;66.54;100501.03;1961825;89;30594;-69
2022/05/05 04:32:46;;;;;;;33.25;20.57;;;;;;;9.34;66.50;100514.33;1983143;89;27638;-66
2022/05/05 04:35:49;;;;;;;27.15;19.85;;;;;;;9.49;66.39;100512.80;1983462;89;29882;-67
2022/05/05 04:38:51;;;;;;;32.83;20.82;;;;;;;9.65;66.35;100514.38;1983084;89;31779;-66
2022/05/05 04:41:53;;;;;;;30.00;20.75;;;;;;;9.85;66.24;100508.61;1983064;89;33587;-64
2022/05/05 04:44:57;;;;;;;29.87;21.57;;;;;;;10.03;66.21;100506.47;1983299;89;30553;-67
2022/05/05 04:47:59;;;;;;;32.42;22.45;;;;;;;10.25;66.09;100509.55;1983479;89;27663;-64
2022/05/05 04:51:01;;;;;;;34.80;22.82;;;;;;;10.51;65.90;100520.90;1982704;89;29895;-64
2022/05/05 04:54:07;;;;;;;31.93;22.35;;;;;;;11.15;65.99;100508.55;1970667;89;32341;-62
2022/05/05 04:57:09;;;;;;;33.95;22.48;;;;;;;11.98;65.41;100504.41;1950138;91;33775;-64
2022/05/05 05:00:12;;;;;;;35.55;24.63;;;;;;;12.75;64.57;100502.09;1949991;91;30635;-62
2022/05/05 05:03:33;;;;;;;35.68;23.20;;;;;;;13.43;63.62;100497.39;1950362;91;27744;-65
2022/05/05 05:06:21;;;;;;;31.10;22.42;;;;;;;14.12;62.99;100500.97;1941772;91;28706;-66
2022/05/05 05:09:23;;;;;;;27.55;21.15;;;;;;;14.82;62.08;100502.05;1949995;91;32448;-65
2022/05/05 05:12:25;;;;;;;28.02;22.10;;;;;;;15.45;61.38;100504.67;1950297;91;33065;-64
2022/05/05 05:15:28;;;;;;;30.45;21.57;;;;;;;16.06;60.01;100500.12;1949994;91;30190;-64
2022/05/05 05:18:30;;;;;;;38.17;23.07;;;;;;;16.57;59.51;100495.67;1950331;91;27739;-65
2022/05/05 05:21:33;;;;;;;29.60;22.85;;;;;;;17.07;58.65;100488.07;1949914;91;29475;-66
2022/05/05 05:24:35;;;;;;;30.35;23.47;;;;;;;17.49;57.91;100487.67;1964173;89;31515;-67
2022/05/05 05:27:37;;;;;;;30.62;24.37;;;;;;;17.83;57.18;100491.86;1981125;89;34176;-62
2022/05/05 05:30:39;;;;;;;31.37;22.35;;;;;;;18.13;56.06;100495.91;1981118;89;29703;-65
2022/05/05 05:33:42;;;;;;;31.73;23.07;;;;;;;18.42;55.40;100492.73;1981211;89;27770;-62
2022/05/05 05:36:46;;;;;;;29.67;22.48;;;;;;;18.56;54.35;100494.34;1980861;89;29577;-63
2022/05/05 05:39:48;;;;;;;32.45;23.42;;;;;;;18.91;54.19;100489.27;1981446;89;31121;-66
2022/05/05 05:42:50;;;;;;;30.25;23.22;;;;;;;19.26;53.24;100493.16;1980785;89;34152;-65
2022/05/05 05:45:53;;;;;;;37.65;23.87;;;;;;;19.48;52.01;100499.52;1980801;89;30359;-63
2022/05/05 05:48:56;;;;;;;33.13;22.95;;;;;;;19.72;52.19;100495.21;1981127;89;27776;-62
2022/05/05 05:52:01;;;;;;;31.23;22.07;;;;;;;19.91;50.62;100497.75;1980842;89;28709;-64
2022/05/05 05:55:04;;;;;;;;;;;;;;;19.97;50.96;100505.36;1965479;89;31201;-64
2022/05/05 05:58:07;;;;;;;29.42;22.48;;;;;;;20.19;50.49;100502.98;1950447;89;33977;-62
2022/05/05 06:01:09;;;;;;;26.73;22.58;;;;;;;20.44;49.95;100503.57;1950180;91;30134;-63
2022/05/05 06:04:12;;;;;;;28.27;20.88;;;;;;;20.66;49.20;100505.76;1950063;91;27748;-62
2022/05/05 06:07:14;;;;;;;27.45;22.05;;;;;;;20.95;48.70;100505.88;1950009;91;29492;-63
2022/05/05 06:10:20;;;;;;;32.55;20.72;;;;;;;21.31;48.24;100508.12;1949914;91;32551;-61
2022/05/05 06:13:22;;;;;;;27.30;20.23;;;;;;;21.73;47.84;100501.58;1950176;91;32805;-61
2022/05/05 06:16:24;;;;;;;29.05;20.60;;;;;;;22.20;47.08;100500.77;1950165;91;29153;-61
2022/05/05 06:19:26;;;;;;;28.25;21.15;;;;;;;22.68;45.78;100494.84;1950292;91;27732;-64
2022/05/05 06:22:29;;;;;;;26.52;21.68;;;;;;;23.16;45.41;100499.69;1950006;91;28676;-63
2022/05/05 06:25:31;;;;;;;32.83;22.62;;;;;;;23.62;44.83;100501.55;1976219;89;31577;-61
2022/05/05 06:28:34;;;;;;;27.07;21.33;;;;;;;24.14;44.05;100503.53;1980861;89;33844;-62
2022/05/05 06:31:36;;;;;;;27.42;21.70;;;;;;;24.56;43.62;100500.54;1977928;89;31446;-68
2022/05/05 06:34:38;;;;;;;28.10;21.55;;;;;;;25.03;42.90;100502.83;1950158;91;27717;-67
2022/05/05 06:37:41;;;;;;;31.20;23.18;;;;;;;25.47;42.27;100500.40;1949814;91;30035;-65
2022/05/05 06:40:45;;;;;;;30.02;22.98;;;;;;;25.91;41.60;100496.48;1950572;91;31484;-67
2022/05/05 06:43:48;;;;;;;29.57;24.95;;;;;;;26.33;40.68;100502.81;1950043;91;33023;-68
2022/05/05 06:46:52;;;;;;;27.48;23.80;;;;;;;26.67;40.30;100496.20;1949895;91;30539;-68
2022/05/05 06:49:55;;;;;;;31.10;23.63;;;;;;;26.97;39.08;100496.44;1950164;91;28318;-66
2022/05/05 06:53:00;;;;;;;26.00;22.27;;;;;;;27.32;39.39;100488.34;1959590;90;28723;-69
2022/05/05 06:56:03;;;;;;;30.35;20.95;;;;;;;27.67;38.18;100492.41;1965179;90;32309;-68
2022/05/05 06:59:07;;;;;;;29.07;19.45;;;;;;;27.93;37.73;100488.42;1965364;90;32396;-69
2022/05/05 07:02:12;;;;;;;23.20;19.55;;;;;;;28.23;37.60;100489.89;1965541;90;29565;-69
2022/05/05 07:05:26;;;;;;;21.97;19.17;;;;;;;28.52;36.77;100498.37;1965419;90;27658;-69
2022/05/05 07:10:52;;;;;;;21.05;18.65;;;;;;;28.72;36.19;100489.84;1965443;90;29922;-68
2022/05/05 07:11:33;;;;;;;19.73;17.70;;;;;;;28.97;36.00;100495.08;1962333;90;31954;-68
2022/05/05 07:14:35;;;;;;;21.85;17.80;;;;;;;29.19;34.89;100488.24;1965141;90;34260;-67
2022/05/05 07:17:37;;;;;;;23.45;17.85;;;;;;;29.32;34.26;100492.52;1965226;90;30574;-67
2022/05/05 07:20:39;;;;;;;23.75;18.40;;;;;;;29.59;34.07;100495.59;1965238;90;27810;-68
2022/05/05 07:23:41;;;;;;;22.05;18.40;;;;;;;29.81;33.85;100494.20;1965255;90;29124;-67
2022/05/05 07:26:43;;;;;;;21.97;18.10;;;;;;;30.08;33.78;100497.22;1964920;90;31907;-68
2022/05/05 07:29:45;;;;;;;21.68;17.92;;;;;;;30.35;33.50;100491.90;1965196;90;34136;-67
2022/05/05 07:32:46;;;;;;;23.73;19.12;;;;;;;30.51;32.54;100494.34;1965158;90;29905;-67
2022/05/05 07:35:49;;;;;;;21.05;17.90;;;;;;;30.55;31.88;100488.73;1965185;90;27717;-68
2022/05/05 07:38:51;;;;;;;19.60;17.02;;;;;;;30.74;31.87;100487.16;1964995;90;30119;-68
2022/05/05 07:41:53;;;;;;;21.10;17.87;;;;;;;31.00;31.19;100484.72;1964960;90;32574;-68
2022/05/05 07:44:55;;;;;;;17.92;16.00;;;;;;;31.26;30.67;100488.14;1964949;90;34213;-69
2022/05/05 07:48:00;;;;;;;17.87;16.07;;;;;;;31.38;30.58;100491.13;1965014;90;30610;-67
2022/05/05 07:51:01;;;;;;;20.05;17.52;;;;;;;31.60;29.95;100490.45;1965226;90;27779;-69
2022/05/05 07:57:24;;;;;;;18.57;16.62;;;;;;;31.86;29.46;100489.30;1980755;89;32300;-68
2022/05/05 08:00:27;;;;;;;20.40;15.45;;;;;;;32.13;29.50;100486.86;1980642;89;34176;-67
2022/05/05 08:03:30;;;;;;;18.98;16.00;;;;;;;32.19;28.94;100488.43;1981152;89;29419;-69
2022/05/05 08:06:32;;;;;;;20.35;15.13;;;;;;;32.20;28.58;100484.59;1980963;89;28177;-67
2022/05/05 08:09:35;;;;;;;22.75;14.87;;;;;;;32.05;28.25;100493.16;1981136;89;29721;-69
2022/05/05 08:12:37;;;;;;;19.20;14.63;;;;;;;32.03;28.47;100495.28;1981123;89;32216;-66
2022/05/05 08:15:40;;;;;;;16.65;14.95;;;;;;;32.00;28.41;100499.34;1980893;89;34204;-69
2022/05/05 08:18:42;;;;;;;16.95;15.25;;;;;;;32.11;28.04;100495.92;1981293;89;29388;-68
2022/05/05 08:21:45;;;;;;;17.35;15.53;;;;;;;31.96;27.13;100491.97;1980978;89;27723;-65
2022/05/05 08:28:29;;;;;;;19.30;14.85;;;;;;;32.07;27.30;100504.33;1981132;89;32226;-67
2022/05/05 08:31:31;;;;;;;16.23;14.33;;;;;;;32.12;26.98;100499.53;1981073;89;33393;-63
2022/05/05 08:34:33;;;;;;;19.52;16.10;;;;;;;31.94;26.93;100503.80;1980897;89;30544;-65
2022/05/05 08:37:35;;;;;;;16.85;15.00;;;;;;;31.89;26.98;100500.83;1981075;89;27670;-70
2022/05/05 08:40:42;;;;;;;16.77;14.68;;;;;;;31.88;27.08;100496.87;1980873;89;29561;-70
2022/05/05 08:43:44;;;;;;;15.80;13.22;;;;;;;31.88;26.70;100499.13;1981230;89;31997;-68
2022/05/05 08:46:48;;;;;;;18.17;15.75;;;;;;;31.86;26.05;100497.09;1980815;89;33846;-66
2022/05/05 08:49:51;;;;;;;15.60;13.95;;;;;;;31.68;26.10;100497.16;1981180;89;29342;-69
2022/05/05 08:52:53;;;;;;;15.95;14.25;;;;;;;31.63;26.05;100496.09;1982082;89;28307;-69
2022/05/05 08:55:55;;;;;;;15.90;14.03;;;;;;;31.43;25.93;100494.13;1983374;89;29975;-70
2022/05/05 08:58:58;;;;;;;14.25;12.70;;;;;;;30.96;24.87;100495.33;1983318;89;31913;-69
2022/05/05 09:02:00;;;;;;;15.70;14.00;;;;;;;30.44;25.76;100498.97;1983162;89;33632;-66
2022/05/05 09:05:05;;;;;;;15.13;12.58;;;;;;;30.08;25.42;100499.98;1983496;89;29811;-69
2022/05/05 09:08:08;;;;;;;17.20;12.47;;;;;;;29.78;26.07;100499.61;1983297;89;27775;-68
2022/05/05 09:11:15;;;;;;;13.95;12.23;;;;;;;29.60;25.67;100493.16;1961732;89;29551;-69
2022/05/05 09:14:19;;;;;;;18.23;12.53;;;;;;;29.04;25.76;100491.86;1983158;89;31293;-67
2022/05/05 09:17:29;;;;;;;13.22;11.83;;;;;;;28.93;26.73;100482.72;1983664;89;33009;-66
2022/05/05 09:20:39;;;;;;;11.50;10.30;;;;;;;29.02;26.24;100490.36;1983357;89;29739;-67
2022/05/05 09:27:21;;;;;;;12.53;10.13;;;;;;;28.80;26.30;100500.81;1983156;89;29930;-70
2022/05/05 09:30:23;;;;;;;12.63;10.45;;;;;;;28.53;26.08;100495.95;1983029;89;31993;-69
2022/05/05 09:33:41;;;;;;;14.33;10.70;;;;;;;28.43;26.44;100496.23;1983383;89;33398;-70
2022/05/05 09:36:44;;;;;;;12.78;10.88;;;;;;;28.32;26.36;100493.41;1983704;89;30511;-71
2022/05/05 09:39:46;;;;;;;16.05;11.60;;;;;;;28.15;26.17;100492.20;1983603;89;27941;-66
2022/05/05 09:42:54;;;;;;;13.90;12.28;;;;;;;27.85;26.33;100486.60;1983287;89;30078;-65
2022/05/05 09:45:57;;;;;;;13.55;11.22;;;;;;;27.71;26.85;100492.38;1983596;89;31005;-62
2022/05/05 09:49:16;;;;;;;15.00;12.25;;;;;;;27.60;27.73;100488.16;1983552;89;33804;-63
2022/05/05 09:59:07;;;;;;;9.75;7.67;;;;;;;26.75;27.49;100496.68;1981038;89;29390;-62
2022/05/05 10:02:27;;;;;;;13.58;10.08;;;;;;;26.62;27.33;100497.77;1965100;89;31121;-64
2022/05/05 10:05:22;;;;;;;16.03;10.27;;;;;;;26.29;26.90;100500.06;1949101;91;33047;-62
2022/05/05 10:08:36;;;;;;;12.88;9.15;;;;;;;25.97;27.18;100494.09;1950025;91;30715;-61
2022/05/05 10:11:38;;;;;;;13.13;10.05;;;;;;;25.93;27.92;100494.92;1950049;91;28376;-65
2022/05/05 10:14:44;;;;;;;12.60;10.10;;;;;;;25.88;27.87;100491.86;1950147;91;29824;-61
2022/05/05 10:17:45;;;;;;;13.90;11.85;;;;;;;25.74;28.45;100500.26;1949630;91;32244;-64
2022/05/05 10:20:48;;;;;;;16.73;11.95;;;;;;;25.71;28.54;100489.61;1950102;91;34164;-64
2022/05/05 10:24:17;;;;;;;15.13;10.82;;;;;;;25.68;28.75;100492.70;1950062;91;29866;-61
2022/05/05 10:27:20;;;;;;;13.53;10.08;;;;;;;25.77;29.42;100487.57;1887653;94;27754;-62
2022/05/05 10:30:37;;;;;;;10.85;9.75;;;;;;;25.82;28.77;100486.52;1887409;94;29410;-62
2022/05/05 10:34:06;;;;;;;11.68;10.05;;;;;;;25.77;28.88;100481.55;1916595;92;31175;-63
2022/05/05 10:37:14;;;;;;;12.73;10.43;;;;;;;25.59;28.58;100480.86;1911041;92;33903;-70
2022/05/05 10:40:17;;;;;;;12.73;9.25;;;;;;;25.43;28.91;100483.09;1916583;92;29338;-69
2022/05/05 10:43:33;;;;;;;12.15;9.88;;;;;;;25.27;29.06;100482.50;1916584;92;27866;-69
2022/05/05 10:46:55;;;;;;;;;;;;;;;25.11;29.38;100477.32;1918365;92;30085;-69
2022/05/05 10:49:58;;;;;;;13.40;9.05;;;;;;;25.19;30.07;100477.86;1916446;92;31320;-69
2022/05/05 10:53:03;;;;;;;13.30;9.03;;;;;;;25.29;29.91;100469.48;1913241;92;32580;-69
2022/05/05 10:56:22;;;;;;;10.98;8.60;;;;;;;25.39;30.04;100470.70;1898439;93;29425;-70
2022/05/05 10:59:25;;;;;;;10.95;9.00;;;;;;;25.54;30.04;100464.91;1886706;93;27689;-67
2022/05/05 11:02:28;;;;;;;7.50;6.72;;;;;;;25.53;29.40;100461.83;1859811;95;29501;-64
2022/05/05 11:05:36;;;;;;;9.73;7.95;;;;;;;25.46;29.09;100460.81;1917246;92;31132;-65
2022/05/05 11:08:37;;;;;;;9.83;7.20;;;;;;;25.31;29.15;100444.99;1974425;90;32950;-64
2022/05/05 11:11:40;;;;;;;8.73;5.95;;;;;;;25.31;29.87;100457.33;1974339;90;30627;-62
2022/05/05 11:21:37;;;;;;;11.95;7.03;;;;;;;25.05;29.14;100456.58;1969133;90;32266;-66
2022/05/05 11:24:44;;;;;;;7.17;5.72;;;;;;;24.94;29.20;100442.66;1969380;90;33176;-66
2022/05/05 11:27:46;;;;;;;10.23;6.70;;;;;;;24.90;28.90;100451.74;1969298;90;29586;-65
2022/05/05 11:30:48;;;;;;;7.58;5.95;;;;;;;24.78;28.74;100447.07;1969452;90;27649;-66
2022/05/05 11:34:03;;;;;;;9.05;6.50;;;;;;;24.66;29.07;100448.37;1969327;90;29965;-69
2022/05/05 11:37:06;;;;;;;;;;;;;;;24.62;28.89;100449.72;1971789;90;31867;-64
2022/05/05 11:40:11;;;;;;;8.25;6.12;;;;;;;24.56;29.15;100447.13;1969479;90;33047;-65
2022/05/05 11:46:34;;;;;;;8.90;5.83;;;;;;;24.54;28.88;100446.43;1969888;90;27848;-64
2022/05/05 11:49:36;;;;;;;10.65;5.70;;;;;;;24.53;29.16;100446.08;1969677;90;29917;-65
2022/05/05 11:52:39;;;;;;;8.35;5.10;;;;;;;24.57;29.52;100436.52;1969619;90;31711;-63
2022/05/05 11:55:44;;;;;;;10.78;6.15;;;;;;;24.67;29.45;100439.97;1980375;89;33765;-62
2022/05/05 12:02:21;;;;;;;9.83;5.58;;;;;;;24.80;29.08;100434.06;1981190;89;27703;-65
2022/05/05 12:05:24;;;;;;;7.10;5.40;;;;;;;24.91;29.41;100429.29;1980936;89;33639;-63
2022/05/05 12:08:28;;;;;;;6.20;5.60;;;;;;;25.00;28.89;100426.94;1980797;89;31935;-66
2022/05/05 12:11:30;;;;;;;8.77;5.57;;;;;;;25.04;28.73;100426.95;1981294;89;32983;-65
2022/05/05 12:14:40;;;;;;;6.35;5.75;;;;;;;25.07;28.79;100436.70;1981057;89;29786;-64
2022/05/05 12:17:57;;;;;;;5.92;5.33;;;;;;;25.10;28.67;100433.11;1960987;89;27678;-63
2022/05/05 12:20:58;;;;;;;6.37;5.30;;;;;;;25.09;28.68;100432.77;1980961;88;28645;-66
2022/05/05 12:24:02;;;;;;;7.85;5.22;;;;;;;25.05;28.52;100428.67;1981053;89;31824;-65
2022/05/05 12:27:11;;;;;;;6.83;4.83;;;;;;;25.03;28.60;100427.45;1951544;89;32975;-65
2022/05/05 12:30:37;;;;;;;5.22;4.72;;;;;;;25.11;28.82;100429.87;1976203;89;29935;-65
2022/05/05 12:33:39;;;;;;;7.35;4.95;;;;;;;25.24;28.63;100423.87;1921202;92;27831;-65
2022/05/05 12:36:41;;;;;;;6.95;4.62;;;;;;;25.40;27.96;100418.41;1920719;92;29591;-65
2022/05/05 12:39:53;;;;;;;5.05;4.65;;;;;;;25.55;28.16;100419.99;1920814;92;32300;-66
2022/05/05 12:43:08;;;;;;;6.40;5.30;;;;;;;25.71;28.24;100416.90;1920972;92;32991;-64
2022/05/05 12:46:13;;;;;;;6.67;4.90;;;;;;;25.80;27.90;100415.88;1920660;92;30756;-65
2022/05/05 12:49:34;;;;;;;6.90;4.40;;;;;;;25.85;28.13;100423.05;1901931;92;28119;-65
2022/05/05 12:59:37;;;;;;;5.47;4.45;;;;;;;26.12;28.09;100413.26;1946345;91;33783;-60
2022/05/05 13:02:39;;;;;;;5.78;4.58;;;;;;;26.28;27.88;100414.58;1951104;91;29358;-60
2022/05/05 13:05:42;;;;;;;14.20;4.85;;;;;;;26.38;27.60;100405.64;1975474;90;27962;-65
2022/05/05 13:08:46;;;;;;;5.28;4.40;;;;;;;26.50;27.83;100410.73;1978767;90;29484;-62
2022/05/05 13:11:52;;;;;;;5.08;4.30;;;;;;;26.57;27.95;100405.38;1954085;91;31071;-66
2022/05/05 13:14:54;;;;;;;6.42;4.00;;;;;;;26.58;27.83;100418.09;1953984;91;34027;-66
2022/05/05 13:17:56;;;;;;;4.80;3.87;;;;;;;26.52;27.90;100413.63;1953970;91;29994;-61
2022/05/05 13:20:58;;;;;;;8.05;4.95;;;;;;;26.45;28.00;100410.41;1933392;91;27752;-62
2022/05/05 13:24:12;;;;;;;7.05;4.83;;;;;;;26.38;28.15;100421.25;1954011;91;29545;-66
2022/05/05 13:27:15;;;;;;;11.80;5.20;;;;;;;26.28;28.29;100428.84;1953903;91;32316;-67
2022/05/05 13:30:17;;;;;;;75.87;10.30;;;;;;;26.06;28.23;100443.09;1983065;89;34048;-63
2022/05/05 13:33:20;;;;;;;20.70;7.42;;;;;;;25.72;30.18;100455.66;1982958;89;30211;-64
2022/05/05 13:36:22;;;;;;;8.75;6.90;;;;;;;25.20;31.64;100460.37;1983150;89;27732;-64
2022/05/05 13:39:26;;;;;;;10.53;7.62;;;;;;;24.72;32.49;100473.25;1983084;89;30164;-65
2022/05/05 13:42:28;;;;;;;13.88;8.28;;;;;;;24.31;33.41;100476.27;1983146;89;32294;-62
2022/05/05 13:45:31;;;;;;;10.43;7.55;;;;;;;23.82;34.34;100477.61;1982986;89;33825;-66
2022/05/05 13:48:37;;;;;;;9.77;7.97;;;;;;;23.36;34.86;100494.10;1961120;89;30291;-64
2022/05/05 13:51:40;;;;;;;15.95;8.83;;;;;;;22.97;35.76;100517.56;1983261;89;27730;-61
2022/05/05 13:54:44;;;;;;;9.90;8.68;;;;;;;22.67;36.55;100540.06;1979212;89;29391;-62
2022/05/05 13:57:46;;;;;;;11.20;7.20;;;;;;;22.36;36.99;100552.52;1971463;90;31080;-60
2022/05/05 14:00:49;;;;;;;9.23;5.85;;;;;;;22.11;37.56;100557.60;1970977;90;34000;-63
2022/05/05 14:03:51;;;;;;;15.85;5.08;;;;;;;21.83;37.98;100566.52;1971002;90;29634;-60
2022/05/05 14:06:56;;;;;;;12.65;5.83;;;;;;;21.55;38.12;100573.63;1971251;90;28073;-60
2022/05/05 14:13:18;;;;;;;10.75;5.97;;;;;;;21.02;39.30;100578.87;1972900;90;32510;-60
2022/05/05 14:16:21;;;;;;;13.62;6.65;;;;;;;20.75;39.87;100577.10;1972907;90;33774;-60
2022/05/05 14:19:24;;;;;;;13.55;6.78;;;;;;;20.56;40.04;100586.48;1972962;90;30165;-60
2022/05/05 14:22:27;;;;;;;10.43;6.40;;;;;;;20.34;41.02;100589.23;1972894;90;27566;-61
2022/05/05 14:25:31;;;;;;;11.63;6.78;;;;;;;20.14;41.96;100588.23;1973210;90;28680;-62
2022/05/05 14:28:33;;;;;;;5.60;5.08;;;;;;;19.93;42.35;100583.25;1973112;90;31161;-61
2022/05/05 14:31:36;;;;;;;9.30;6.75;;;;;;;19.73;43.00;100576.25;1973038;90;34178;-61
2022/05/05 14:34:39;;;;;;;7.12;5.97;;;;;;;19.53;43.34;100576.06;1973201;90;30030;-60
2022/05/05 14:37:42;;;;;;;10.15;6.45;;;;;;;19.34;43.98;100575.38;1973119;90;27738;-64
2022/05/05 14:40:44;;;;;;;9.13;6.25;;;;;;;19.20;44.48;100578.36;1973101;90;29877;-64
2022/05/05 14:43:47;;;;;;;13.05;7.55;;;;;;;19.02;45.94;100578.02;1973082;90;31979;-66
2022/05/05 14:46:49;;;;;;;9.90;6.87;;;;;;;18.79;46.72;100572.05;1973304;90;33886;-65
2022/05/05 14:49:54;;;;;;;8.23;6.05;;;;;;;18.60;47.36;100568.59;1973366;90;30181;-62
2022/05/05 14:52:55;;;;;;;8.55;6.53;;;;;;;18.42;47.98;100570.92;1973418;90;27750;-60
2022/05/05 14:55:57;;;;;;;9.05;7.15;;;;;;;18.20;48.68;100580.72;1978175;89;30071;-62